Time;durP1;ratioP1;P1;durP2;ratioP2;P2;SDS_P1;SDS_P2;PMS_P1;PMS_P2;Temp;Humidity;BMP_temperature;BMP_pressure;BME280_temperature;BME280_humidity;BME280_pressure;Samples;Min_cycle;Max_cycle;Signal;HPM_P1;HPM_P2
2021/12/12 00:02:24;;;;;;;13.77;4.20;;;11.40;99.90;;;;;;5055618;28;20380;-73
2021/12/12 00:04:52;;;;;;;17.15;4.78;;;11.40;99.90;;;;;;5055437;28;20087;-74
2021/12/12 00:07:26;;;;;;;14.90;4.75;;;11.50;99.90;;;;;;5055516;28;20056;-74
2021/12/12 00:10:03;;;;;;;14.10;4.10;;;11.60;99.90;;;;;;5054292;28;20045;-74
2021/12/12 00:12:41;;;;;;;12.48;4.22;;;11.60;99.90;;;;;;5055250;28;20073;-74
2021/12/12 00:15:15;;;;;;;12.18;4.25;;;11.60;99.90;;;;;;5055191;28;20061;-74
2021/12/12 00:17:48;;;;;;;14.20;4.40;;;11.60;99.90;;;;;;5055701;28;20072;-74
2021/12/12 00:20:19;;;;;;;12.15;4.40;;;11.80;99.90;;;;;;5053831;28;20106;-74
2021/12/12 00:22:58;;;;;;;14.60;4.40;;;11.80;99.90;;;;;;5055300;28;20044;-74
2021/12/12 00:25:34;;;;;;;16.67;4.78;;;11.80;99.90;;;;;;5054019;28;20076;-74
2021/12/12 00:28:06;;;;;;;13.85;4.53;;;11.80;99.90;;;;;;5053491;28;20055;-74
2021/12/12 00:30:33;;;;;;;16.05;4.90;;;11.80;99.90;;;;;;5053061;28;20451;-75
2021/12/12 00:33:04;;;;;;;13.25;4.43;;;11.80;99.90;;;;;;5053567;28;20060;-75
2021/12/12 00:35:33;;;;;;;16.55;5.20;;;11.70;99.90;;;;;;5054949;28;20075;-74
2021/12/12 00:38:07;;;;;;;13.10;5.68;;;11.60;99.90;;;;;;5054558;28;20041;-75
2021/12/12 00:40:39;;;;;;;13.13;4.68;;;11.50;99.90;;;;;;5054921;28;20041;-75
2021/12/12 00:43:36;;;;;;;17.73;5.13;;;11.50;99.90;;;;;;5053533;28;20557;-75
2021/12/12 00:46:08;;;;;;;14.93;5.25;;;11.40;99.90;;;;;;5054578;28;20067;-74
2021/12/12 00:52:20;;;;;;;13.20;4.82;;;11.10;99.90;;;;;;5052876;28;20092;-74
2021/12/12 00:58:55;;;;;;;15.98;5.07;;;11.00;99.90;;;;;;5052682;28;20021;-76
2021/12/12 01:01:35;;;;;;;14.85;5.03;;;11.00;99.90;;;;;;5053564;28;20061;-75
2021/12/12 01:04:08;;;;;;;17.83;5.35;;;11.10;99.90;;;;;;5054061;28;20041;-75
2021/12/12 01:06:40;;;;;;;14.35;4.68;;;11.10;99.90;;;;;;5053078;28;20459;-74
2021/12/12 01:09:11;;;;;;;13.38;4.85;;;11.10;99.90;;;;;;5054391;28;20049;-75
2021/12/12 01:11:43;;;;;;;12.48;4.50;;;11.10;99.90;;;;;;5052455;28;20143;-75
2021/12/12 01:14:21;;;;;;;11.55;4.60;;;11.10;99.90;;;;;;5054031;28;20076;-74
2021/12/12 01:17:05;;;;;;;9.70;4.75;;;11.10;99.90;;;;;;5052915;28;20043;-74
2021/12/12 01:19:50;;;;;;;13.15;4.85;;;10.90;99.90;;;;;;5054500;28;20108;-74
2021/12/12 01:22:28;;;;;;;12.02;5.07;;;10.90;99.90;;;;;;5052588;28;20049;-75
2021/12/12 01:25:09;;;;;;;16.45;5.07;;;11.00;99.90;;;;;;5054007;28;20064;-75
2021/12/12 01:27:40;;;;;;;13.73;4.93;;;11.10;99.90;;;;;;5052336;28;20562;-74
2021/12/12 01:30:10;;;;;;;15.68;5.05;;;11.10;99.90;;;;;;5052552;28;20128;-74
2021/12/12 01:32:42;;;;;;;11.95;4.40;;;11.20;99.90;;;;;;5052524;28;20152;-74
2021/12/12 01:35:15;;;;;;;10.55;4.60;;;11.20;99.90;;;;;;5052130;28;20056;-75
2021/12/12 01:38:50;;;;;;;13.95;5.30;;;11.30;99.90;;;;;;5052480;28;20076;-75
2021/12/12 01:40:42;;;;;;;13.40;5.10;;;11.40;99.90;;;;;;5053271;28;20079;-74
2021/12/12 01:43:19;;;;;;;11.18;5.15;;;11.30;99.90;;;;;;5052019;28;20087;-75
2021/12/12 01:46:00;;;;;;;11.63;4.03;;;11.30;99.90;;;;;;5052349;28;20053;-74
2021/12/12 01:48:45;;;;;;;11.95;4.22;;;11.30;99.90;;;;;;5052325;28;20096;-75
2021/12/12 01:51:13;;;;;;;13.93;4.85;;;11.30;99.90;;;;;;5053643;28;20091;-74
2021/12/12 01:54:07;;;;;;;13.23;4.72;;;11.20;99.90;;;;;;5053145;28;20090;-75
2021/12/12 01:56:58;;;;;;;15.25;4.95;;;11.10;99.90;;;;;;5053887;28;20071;-74
2021/12/12 01:59:53;;;;;;;18.48;6.97;;;10.90;99.90;;;;;;5051783;28;20491;-74
2021/12/12 02:02:45;;;;;;;18.10;6.32;;;10.90;99.90;;;;;;5052089;28;20213;-74
2021/12/12 02:05:20;;;;;;;15.05;6.03;;;10.90;99.90;;;;;;5053397;28;20033;-74
2021/12/12 02:08:01;;;;;;;14.30;5.20;;;11.00;99.90;;;;;;5051323;28;20044;-74
2021/12/12 02:10:34;;;;;;;14.27;5.97;;;11.10;99.90;;;;;;5053298;28;20099;-74
2021/12/12 02:13:08;;;;;;;19.50;6.47;;;11.00;99.90;;;;;;5052865;28;20049;-74
2021/12/12 02:15:39;;;;;;;16.27;6.28;;;11.00;99.90;;;;;;5051740;28;20045;-73
2021/12/12 02:18:14;;;;;;;17.33;6.32;;;10.90;99.90;;;;;;5051938;28;20045;-74
2021/12/12 02:21:04;;;;;;;16.38;5.90;;;10.80;99.90;;;;;;5053378;28;20598;-74
2021/12/12 02:35:06;;;;;;;15.57;6.60;;;10.80;99.90;;;;;;5051605;28;20076;-74
2021/12/12 02:36:29;;;;;;;16.58;6.40;;;11.10;99.90;;;;;;5052210;28;20049;-74
2021/12/12 02:39:08;;;;;;;17.58;6.95;;;11.20;99.90;;;;;;5051473;28;20071;-74
2021/12/12 02:41:58;;;;;;;18.17;7.38;;;11.20;99.90;;;;;;5052545;28;20029;-73
2021/12/12 02:44:31;;;;;;;20.88;6.72;;;11.00;99.90;;;;;;5053449;28;20048;-74
2021/12/12 02:47:32;;;;;;;20.10;7.70;;;11.00;99.90;;;;;;5052502;28;20063;-73
2021/12/12 02:54:12;;;;;;;16.00;8.40;;;10.90;99.90;;;;;;5055331;28;20549;-73
2021/12/12 03:00:55;;;;;;;13.30;7.15;;;10.80;99.90;;;;;;5055067;28;20057;-73
2021/12/12 03:03:35;;;;;;;14.15;7.10;;;11.00;99.90;;;;;;5056556;28;20072;-73
2021/12/12 03:06:29;;;;;;;16.15;7.63;;;11.00;99.90;;;;;;5056754;28;20119;-73
2021/12/12 03:09:06;;;;;;;19.00;7.65;;;11.00;99.90;;;;;;5056855;28;20040;-74
2021/12/12 03:11:36;;;;;;;16.00;7.28;;;10.90;99.90;;;;;;5055420;28;20131;-74
2021/12/12 03:14:04;;;;;;;16.65;7.13;;;11.10;99.90;;;;;;5054983;28;20563;-73
2021/12/12 03:16:34;;;;;;;11.93;5.82;;;11.00;99.90;;;;;;5056558;28;20406;-74
2021/12/12 03:19:04;;;;;;;11.18;5.80;;;11.20;99.90;;;;;;5056747;28;20471;-74
2021/12/12 03:21:56;;;;;;;12.82;6.32;;;11.30;99.90;;;;;;5054804;28;20049;-74
2021/12/12 03:24:27;;;;;;;9.73;5.45;;;11.40;99.90;;;;;;5055115;28;20072;-73
2021/12/12 03:26:59;;;;;;;16.25;6.47;;;11.40;99.90;;;;;;5054858;28;20139;-73
2021/12/12 03:29:31;;;;;;;15.15;6.80;;;11.50;99.90;;;;;;5056246;28;20045;-73
2021/12/12 03:32:08;;;;;;;14.35;6.90;;;11.50;99.90;;;;;;5054864;28;20539;-74
2021/12/12 03:34:40;;;;;;;15.73;7.60;;;11.20;99.90;;;;;;5055121;28;20048;-74
2021/12/12 03:37:17;;;;;;;10.60;6.20;;;11.10;99.90;;;;;;5056172;28;20045;-74
2021/12/12 03:39:51;;;;;;;14.90;5.97;;;11.20;99.90;;;;;;5055956;28;20116;-73
2021/12/12 03:42:24;;;;;;;15.05;6.05;;;11.20;99.90;;;;;;5055524;28;20064;-73
2021/12/12 03:44:55;;;;;;;11.73;5.85;;;11.30;99.90;;;;;;5054716;28;20037;-74
2021/12/12 03:47:40;;;;;;;15.52;6.28;;;11.40;99.90;;;;;;5055856;28;20112;-74
2021/12/12 03:50:15;;;;;;;12.73;5.55;;;11.40;99.90;;;;;;5054493;28;20506;-74
2021/12/12 03:52:44;;;;;;;12.00;6.20;;;11.20;99.90;;;;;;5055615;28;20043;-73
2021/12/12 03:55:18;;;;;;;14.85;5.50;;;11.20;99.90;;;;;;5054617;28;20521;-74
2021/12/12 03:57:49;;;;;;;7.10;5.40;;;11.10;99.90;;;;;;5054312;28;20131;-74
2021/12/12 04:00:44;;;;;;;13.50;6.18;;;11.10;99.90;;;;;;5054036;28;20041;-74
2021/12/12 04:03:14;;;;;;;14.57;7.50;;;11.00;99.90;;;;;;5053731;28;20045;-74
2021/12/12 04:05:53;;;;;;;12.30;6.55;;;10.90;99.90;;;;;;5055682;28;20037;-74
2021/12/12 04:08:39;;;;;;;18.40;9.45;;;10.90;99.90;;;;;;5054136;28;20080;-74
2021/12/12 04:11:23;;;;;;;15.95;9.27;;;10.10;99.90;;;;;;5054001;28;20143;-75
2021/12/12 04:13:55;;;;;;;15.65;10.60;;;9.00;99.90;;;;;;5054203;28;20094;-74
2021/12/12 04:16:25;;;;;;;16.92;10.52;;;8.30;99.90;;;;;;5055672;28;20124;-74
2021/12/12 04:18:56;;;;;;;18.55;11.25;;;7.90;99.90;;;;;;5053768;28;20073;-74
2021/12/12 04:21:28;;;;;;;16.85;10.73;;;7.70;99.90;;;;;;5055187;28;20045;-74
2021/12/12 04:24:04;;;;;;;18.20;11.50;;;7.60;99.90;;;;;;5055268;28;20071;-74
2021/12/12 04:26:40;;;;;;;21.08;11.68;;;7.60;99.90;;;;;;5054034;28;20136;-74
2021/12/12 04:29:32;;;;;;;20.30;12.18;;;7.50;99.90;;;;;;5054875;28;20049;-74
2021/12/12 04:32:27;;;;;;;19.25;11.32;;;7.50;99.90;;;;;;5054921;28;20527;-74
2021/12/12 04:35:06;;;;;;;17.92;11.95;;;7.50;99.90;;;;;;5054880;28;20045;-74
2021/12/12 04:37:40;;;;;;;18.92;12.27;;;7.50;99.90;;;;;;5053856;28;20468;-74
2021/12/12 04:40:33;;;;;;;19.98;11.75;;;7.50;99.90;;;;;;5053186;28;20049;-74
2021/12/12 04:43:01;;;;;;;17.17;11.45;;;7.50;99.90;;;;;;5055126;28;20071;-74
2021/12/12 04:45:47;;;;;;;18.42;12.05;;;7.60;99.90;;;;;;5054184;28;20053;-74
2021/12/12 04:51:22;;;;;;;20.50;11.48;;;7.60;99.90;;;;;;5052740;28;20418;-75
2021/12/12 04:54:23;;;;;;;20.30;11.40;;;7.60;99.90;;;;;;5053245;28;20041;-75
2021/12/12 04:57:01;;;;;;;21.38;12.43;;;7.50;99.90;;;;;;5054538;28;20120;-74
2021/12/12 04:59:57;;;;;;;20.55;11.45;;;7.60;99.90;;;;;;5054356;28;20075;-74
2021/12/12 05:06:28;;;;;;;20.77;12.13;;;7.60;99.90;;;;;;5053880;28;20091;-74
2021/12/12 05:12:46;;;;;;;20.55;11.50;;;7.60;99.90;;;;;;5054205;28;20060;-74
2021/12/12 05:15:24;;;;;;;20.83;11.70;;;7.60;99.90;;;;;;5052952;28;20072;-74
2021/12/12 05:18:00;;;;;;;21.63;11.20;;;7.50;99.90;;;;;;5053927;28;20041;-74
2021/12/12 05:20:41;;;;;;;17.52;11.00;;;7.40;99.90;;;;;;5052890;28;20051;-74
2021/12/12 05:23:13;;;;;;;19.35;12.15;;;7.40;99.90;;;;;;5052658;28;20053;-75
2021/12/12 05:26:06;;;;;;;21.45;12.02;;;7.30;99.90;;;;;;5052694;28;20406;-75
2021/12/12 05:28:42;;;;;;;18.23;11.85;;;7.30;99.90;;;;;;5052376;28;20410;-74
2021/12/12 05:31:11;;;;;;;20.27;12.27;;;7.20;99.90;;;;;;5053378;28;20128;-74
2021/12/12 05:33:41;;;;;;;18.00;11.85;;;7.20;99.90;;;;;;5052468;28;20041;-74
2021/12/12 05:36:11;;;;;;;20.27;12.65;;;7.20;99.90;;;;;;5052423;28;20053;-74
2021/12/12 05:38:42;;;;;;;16.45;11.10;;;7.20;99.90;;;;;;5052534;28;20144;-74
2021/12/12 05:41:19;;;;;;;17.67;10.88;;;7.10;99.90;;;;;;5052345;28;20049;-75
2021/12/12 05:43:56;;;;;;;20.15;11.23;;;7.10;99.90;;;;;;5053609;28;20083;-75
2021/12/12 05:46:25;;;;;;;17.20;10.80;;;7.10;99.90;;;;;;5053488;28;20491;-75
2021/12/12 05:49:04;;;;;;;19.20;11.38;;;7.00;99.90;;;;;;5053583;28;20032;-75
2021/12/12 05:51:38;;;;;;;16.80;10.93;;;6.90;99.90;;;;;;5053428;28;20483;-75
2021/12/12 05:54:09;;;;;;;18.52;12.30;;;6.90;99.90;;;;;;5052062;28;20406;-75
2021/12/12 05:56:41;;;;;;;20.83;11.63;;;6.80;99.90;;;;;;5052219;28;20118;-74
2021/12/12 05:59:11;;;;;;;18.27;11.65;;;6.80;99.90;;;;;;5052937;28;20047;-74
2021/12/12 06:01:40;;;;;;;19.13;12.65;;;6.80;99.90;;;;;;5053604;28;20098;-74
2021/12/12 06:04:10;;;;;;;19.83;11.98;;;6.80;99.90;;;;;;5053270;28;20041;-75
2021/12/12 06:06:42;;;;;;;17.23;11.18;;;6.80;99.90;;;;;;5052121;28;20461;-75
2021/12/12 06:09:12;;;;;;;17.60;11.88;;;6.70;99.90;;;;;;5053654;28;20428;-74
2021/12/12 06:11:45;;;;;;;22.20;15.43;;;6.60;99.90;;;;;;5053392;28;20547;-74
2021/12/12 06:14:18;;;;;;;27.00;17.42;;;6.60;99.90;;;;;;5051811;28;20541;-75
2021/12/12 06:16:51;;;;;;;21.23;14.38;;;6.60;99.90;;;;;;5052079;28;20064;-75
2021/12/12 06:19:24;;;;;;;19.98;12.75;;;6.60;99.90;;;;;;5051530;28;20174;-75
2021/12/12 06:21:55;;;;;;;26.40;12.80;;;6.70;99.90;;;;;;5051681;28;20135;-75
2021/12/12 06:24:28;;;;;;;20.08;12.30;;;6.70;99.90;;;;;;5051924;28;20470;-75
2021/12/12 06:27:04;;;;;;;18.27;11.93;;;6.80;99.90;;;;;;5051696;28;20060;-75
2021/12/12 06:29:39;;;;;;;19.50;11.75;;;6.70;99.90;;;;;;5053048;28;20095;-75
2021/12/12 06:32:08;;;;;;;23.40;14.23;;;6.70;99.90;;;;;;5051145;28;20053;-75
2021/12/12 06:34:36;;;;;;;18.52;11.43;;;6.70;99.90;;;;;;5051552;28;20049;-75
2021/12/12 06:37:09;;;;;;;17.90;12.00;;;6.90;99.90;;;;;;5051676;28;20047;-75
2021/12/12 06:39:44;;;;;;;24.88;14.93;;;6.90;99.90;;;;;;5052718;28;20091;-75
2021/12/12 06:42:14;;;;;;;32.75;20.48;;;6.90;99.90;;;;;;5051680;28;20463;-75
2021/12/12 06:45:00;;;;;;;20.95;13.23;;;7.10;99.90;;;;;;5051804;28;20041;-75
2021/12/12 06:47:27;;;;;;;17.85;12.48;;;7.10;99.90;;;;;;5052503;28;20064;-75
2021/12/12 06:53:48;;;;;;;18.17;12.07;;;7.00;99.90;;;;;;5051636;28;20458;-75
2021/12/12 06:56:40;;;;;;;17.77;11.55;;;7.00;99.90;;;;;;5051722;28;20132;-75
2021/12/12 06:59:08;;;;;;;16.17;11.75;;;7.00;99.90;;;;;;5052243;28;20132;-75
2021/12/12 07:01:36;;;;;;;17.02;12.07;;;7.00;99.90;;;;;;5051903;28;20403;-75
2021/12/12 07:04:07;;;;;;;13.88;10.05;;;7.00;99.90;;;;;;5052594;28;20407;-75
2021/12/12 07:06:38;;;;;;;18.67;11.57;;;7.00;99.90;;;;;;5051207;28;20071;-75
2021/12/12 07:09:09;;;;;;;14.40;10.15;;;7.00;99.90;;;;;;5051774;28;20051;-75
2021/12/12 07:11:39;;;;;;;15.18;10.65;;;7.00;99.90;;;;;;5046921;28;20068;-73
2021/12/12 07:14:10;;;;;;;14.27;10.57;;;6.90;99.90;;;;;;5031744;28;20048;-73
2021/12/12 07:16:39;;;;;;;14.90;10.15;;;6.90;99.90;;;;;;5052565;28;20047;-73
2021/12/12 07:19:09;;;;;;;17.38;10.85;;;6.80;99.90;;;;;;5052248;28;20037;-73
2021/12/12 07:21:37;;;;;;;15.85;10.10;;;6.90;99.90;;;;;;5051778;28;20909;-72
2021/12/12 07:24:05;;;;;;;18.73;11.40;;;6.80;99.90;;;;;;5042596;28;20117;-72
2021/12/12 07:26:33;;;;;;;16.33;10.77;;;6.80;99.90;;;;;;5040992;28;20065;-73
2021/12/12 07:29:30;;;;;;;17.85;11.75;;;7.00;99.90;;;;;;5032799;28;20060;-73
2021/12/12 07:32:24;;;;;;;16.77;11.57;;;7.00;99.90;;;;;;5032450;28;20045;-73
2021/12/12 07:35:27;;;;;;;17.63;12.13;;;7.10;99.90;;;;;;5044639;28;20507;-74
2021/12/12 07:37:55;;;;;;;18.13;11.98;;;7.10;99.90;;;;;;5051254;28;20059;-72
2021/12/12 07:40:47;;;;;;;14.15;9.85;;;7.20;99.90;;;;;;5054984;28;20037;-73
2021/12/12 07:43:17;;;;;;;15.52;10.00;;;7.10;99.90;;;;;;5055918;28;20033;-72
2021/12/12 07:45:49;;;;;;;15.02;10.45;;;7.10;99.90;;;;;;5056005;28;20140;-72
2021/12/12 07:48:16;;;;;;;14.75;9.57;;;7.20;99.90;;;;;;5055807;28;20049;-72
2021/12/12 07:54:15;;;;;;;12.32;9.15;;;7.30;99.90;;;;;;5055834;28;20459;-72
2021/12/12 07:57:48;;;;;;;12.63;9.52;;;7.40;99.90;;;;;;5055028;28;20399;-72
2021/12/12 08:00:50;;;;;;;13.48;9.63;;;7.30;99.90;;;;;;5054215;28;20060;-72
2021/12/12 08:03:31;;;;;;;12.23;8.73;;;7.50;99.90;;;;;;5054830;28;20080;-73
2021/12/12 08:06:07;;;;;;;10.27;7.85;;;7.70;99.90;;;;;;5070592;28;20143;-72
2021/12/12 08:08:40;;;;;;;10.32;8.02;;;7.90;99.90;;;;;;5054390;28;20088;-74
2021/12/12 08:11:14;;;;;;;11.65;8.10;;;7.70;99.90;;;;;;5054256;28;20052;-72
2021/12/12 08:13:48;;;;;;;11.48;8.68;;;7.70;99.90;;;;;;5054108;28;20051;-73
2021/12/12 08:16:17;;;;;;;9.70;7.50;;;7.70;99.90;;;;;;5055229;28;20041;-73
2021/12/12 08:19:11;;;;;;;10.57;7.82;;;7.70;99.90;;;;;;5054002;28;20514;-73
2021/12/12 08:21:49;;;;;;;9.93;7.22;;;7.90;99.90;;;;;;5054148;28;20404;-76
2021/12/12 08:24:17;;;;;;;8.18;6.75;;;8.00;99.90;;;;;;5053979;28;20044;-74
2021/12/12 08:26:46;;;;;;;8.95;6.80;;;7.80;99.90;;;;;;5055120;28;20094;-75
2021/12/12 08:29:22;;;;;;;10.07;7.10;;;8.00;99.90;;;;;;5033557;28;20044;-74
2021/12/12 08:31:55;;;;;;;9.52;6.63;;;8.10;99.90;;;;;;5015419;28;20061;-74
2021/12/12 08:34:25;;;;;;;8.90;6.43;;;8.00;99.90;;;;;;5013755;28;20053;-75
2021/12/12 08:36:58;;;;;;;10.10;7.22;;;7.90;99.90;;;;;;5014218;28;20389;-75
2021/12/12 08:40:33;;;;;;;9.43;6.22;;;7.80;99.90;;;;;;5013422;28;20044;-74
2021/12/12 08:43:09;;;;;;;8.05;5.65;;;7.80;99.90;;;;;;5015257;28;20038;-75
2021/12/12 08:45:55;;;;;;;9.90;5.75;;;7.90;99.90;;;;;;5015633;28;20064;-75
2021/12/12 08:48:30;;;;;;;8.63;6.05;;;8.00;99.90;;;;;;5014834;28;20120;-74
2021/12/12 08:51:03;;;;;;;9.32;5.80;;;8.10;99.90;;;;;;5045020;28;20461;-75
2021/12/12 08:53:30;;;;;;;7.07;5.03;;;8.30;99.90;;;;;;5054548;28;20492;-75
2021/12/12 08:56:04;;;;;;;7.20;3.75;;;8.20;99.90;;;;;;5037056;28;20439;-74
2021/12/12 08:58:32;;;;;;;6.45;4.18;;;7.90;99.90;;;;;;5053583;28;20124;-74
2021/12/12 09:01:25;;;;;;;6.63;4.85;;;7.90;99.90;;;;;;5053395;28;20056;-74
2021/12/12 09:04:00;;;;;;;6.93;4.85;;;8.00;99.90;;;;;;5054837;28;20083;-74
2021/12/12 09:07:01;;;;;;;8.18;4.85;;;7.90;99.90;;;;;;5054543;28;20037;-75
2021/12/12 09:09:37;;;;;;;5.45;3.08;;;8.00;99.90;;;;;;5036391;28;20107;-75
2021/12/12 09:12:09;;;;;;;;;;;7.80;99.90;;;;;;5054932;28;20072;-75
2021/12/12 09:15:01;;;;;;;3.03;2.20;;;7.60;99.90;;;;;;5054531;28;20331;-75
2021/12/12 09:17:56;;;;;;;3.05;1.85;;;7.60;99.90;;;;;;5053015;28;20124;-74
2021/12/12 09:20:36;;;;;;;5.93;1.83;;;7.80;99.90;;;;;;5013365;28;20480;-74
2021/12/12 09:23:32;;;;;;;2.10;1.55;;;7.80;99.90;;;;;;5014350;28;20326;-75
2021/12/12 09:26:15;;;;;;;3.25;1.88;;;8.10;99.90;;;;;;5012781;28;20049;-75
2021/12/12 09:29:15;;;;;;;1.75;1.33;;;8.00;99.90;;;;;;5014237;28;20073;-75
2021/12/12 09:31:50;;;;;;;1.98;1.42;;;7.90;99.90;;;;;;5013957;28;20073;-74
2021/12/12 09:34:40;;;;;;;2.83;1.48;;;8.10;99.90;;;;;;5014154;28;20030;-74
2021/12/12 09:37:19;;;;;;;4.35;2.35;;;8.10;99.90;;;;;;5014833;28;20052;-75
2021/12/12 09:40:16;;;;;;;3.78;1.58;;;8.30;99.90;;;;;;5013845;28;20073;-74
2021/12/12 09:42:49;;;;;;;3.72;2.20;;;8.30;99.90;;;;;;5012329;28;20137;-77
2021/12/12 09:45:41;;;;;;;3.42;2.22;;;8.40;99.90;;;;;;5014127;28;20125;-73
2021/12/12 09:51:17;;;;;;;1.92;1.63;;;8.30;99.90;;;;;;5013272;28;20520;-73
2021/12/12 09:54:18;;;;;;;2.20;2.00;;;8.40;99.90;;;;;;5014006;28;20076;-74
